»·PEaware :: AAL2307 KLAS-KLAX

AAL2307 :: KLAS-KLAX

FLIGHT INFORMATION

Flight Status: Arrived
Operator:
American Airlines
More flights by this operator :: More flights under this callsign
Pilot: Alfredo R. (12181)
Aircraft: BOEING 737-800
(B738)
More flights by this aircraft type
Origin: KLAS McCarran Intl
United States
Destination: KLAX Los Angeles Intl
United States
More flights between these airports :: More routes between these airports
Route: +BOACH8 RIKII SHTNR ANJLL4
File this flight plan on PilotEdge
Remarks:
Altitude:
(Current/Filed)
24,000ft
Speed:
(Current/Filed)
425kts
Departed: 02-Dec-18 09:39 PM
Arrived: 02-Dec-18 10:25 PM
Distance/Time
Traveled:
205nm/0:46
Distance/Time
To Go:
Arrived

Flight Plot

Page will automatically refresh every two minutes.

Flight plan parsing failed; only flown route is shown


Map Options




Map Legend


Flown Route
Filed Route
Departure Airport
Arrival Airport
Navaid (VOR, NDB)
Fix

Horizontal Profiles

Position Reports

Time Latitude Longitude Heading Altitude Ground
Speed
02-Dec-18 21:09 36.080585 -115.140596 134 2074ft 0kts
02-Dec-18 21:10 36.080585 -115.140596 134 2074ft 0kts
02-Dec-18 21:11 36.080585 -115.140596 134 2074ft 0kts
02-Dec-18 21:12 36.080585 -115.140596 134 2074ft 0kts
02-Dec-18 21:13 36.080585 -115.140596 134 2074ft 0kts
02-Dec-18 21:14 36.080585 -115.140596 134 2074ft 0kts
02-Dec-18 21:15 36.080585 -115.140596 134 2074ft 0kts
02-Dec-18 21:16 36.080585 -115.140596 134 2074ft 0kts
02-Dec-18 21:17 36.080585 -115.140596 134 2074ft 0kts
02-Dec-18 21:18 36.080585 -115.140596 134 2074ft 0kts
02-Dec-18 21:19 36.080585 -115.140596 134 2074ft 0kts
02-Dec-18 21:20 36.080585 -115.140596 134 2074ft 0kts
02-Dec-18 21:21 36.080585 -115.140596 134 2075ft 0kts
02-Dec-18 21:22 36.080585 -115.140596 134 2075ft 0kts
02-Dec-18 21:23 36.080585 -115.140597 134 2075ft 0kts
02-Dec-18 21:24 36.080816 -115.140823 131 2075ft 2kts
02-Dec-18 21:25 36.081307 -115.141122 211 2074ft 2kts
02-Dec-18 21:26 36.081243 -115.141203 225 2074ft 7kts
02-Dec-18 21:27 36.080375 -115.141612 181 2079ft 0kts
02-Dec-18 21:28 36.080375 -115.141612 181 2079ft 0kts
02-Dec-18 21:29 36.080375 -115.141612 181 2079ft 0kts
02-Dec-18 21:30 36.080375 -115.141612 181 2079ft 0kts
02-Dec-18 21:31 36.080375 -115.141612 181 2079ft 0kts
02-Dec-18 21:32 36.079855 -115.141632 181 2081ft 5kts
02-Dec-18 21:33 36.078233 -115.139305 89 2076ft 15kts
02-Dec-18 21:34 36.078254 -115.134326 89 2062ft 19kts
02-Dec-18 21:35 36.078256 -115.126874 89 2042ft 17kts
02-Dec-18 21:36 36.078031 -115.122417 125 2036ft 12kts
02-Dec-18 21:37 36.077393 -115.121492 143 2037ft 0kts
02-Dec-18 21:38 36.077393 -115.121492 143 2037ft 0kts
02-Dec-18 21:39 36.077393 -115.121492 143 2037ft 0kts
02-Dec-18 21:40 36.077042 -115.121325 169 2037ft 6kts
02-Dec-18 21:41 36.076399 -115.125992 270 2044ft 35kts
02-Dec-18 21:42 36.076823 -115.167921 274 2700ft 173kts
02-Dec-18 21:43 36.078955 -115.229747 262 4521ft 217kts
02-Dec-18 21:44 36.032769 -115.285424 193 6900ft 261kts
02-Dec-18 21:45 35.959330 -115.306968 190 7166ft 290kts
02-Dec-18 21:46 35.880290 -115.312118 186 10233ft 296kts
02-Dec-18 21:47 35.789803 -115.307902 177 11847ft 355kts
02-Dec-18 21:48 35.690874 -115.296153 181 14528ft 369kts
02-Dec-18 21:49 35.591742 -115.297961 190 16975ft 371kts
02-Dec-18 21:50 35.492202 -115.314496 213 19155ft 359kts
02-Dec-18 21:51 35.407368 -115.373208 220 20879ft 355kts
02-Dec-18 21:52 35.324168 -115.433457 221 22833ft 360kts
02-Dec-18 21:53 35.237337 -115.496449 221 24180ft 373kts
02-Dec-18 21:54 35.145918 -115.562712 221 24183ft 386kts
02-Dec-18 21:55 35.069610 -115.648000 235 24175ft 370kts
02-Dec-18 21:56 34.998783 -115.738578 234 24201ft 370kts
02-Dec-18 21:57 34.927609 -115.829271 234 24229ft 370kts
02-Dec-18 21:58 34.856468 -115.919682 234 24227ft 372kts
02-Dec-18 21:59 34.785538 -116.009584 234 24228ft 372kts
02-Dec-18 22:00 34.714270 -116.100308 234 24225ft 372kts
02-Dec-18 22:01 34.643035 -116.190951 234 24226ft 373kts
02-Dec-18 22:02 34.571631 -116.281600 234 24220ft 375kts
02-Dec-18 22:03 34.501153 -116.370806 234 24224ft 374kts
02-Dec-18 22:04 34.429868 -116.460884 234 24223ft 373kts
02-Dec-18 22:05 34.380054 -116.566154 249 24215ft 362kts
02-Dec-18 22:06 34.336593 -116.671646 248 24136ft 346kts
02-Dec-18 22:07 34.294936 -116.774989 249 23575ft 347kts
02-Dec-18 22:08 34.253480 -116.877875 249 22052ft 339kts
02-Dec-18 22:09 34.212953 -116.978165 249 20452ft 332kts
02-Dec-18 22:10 34.184340 -117.081302 256 18862ft 321kts
02-Dec-18 22:11 34.157154 -117.181833 256 17275ft 317kts
02-Dec-18 22:12 34.129963 -117.280696 256 15691ft 311kts
02-Dec-18 22:13 34.104179 -117.374105 256 14237ft 302kts
02-Dec-18 22:14 34.080886 -117.467209 258 12747ft 294kts
02-Dec-18 22:15 34.052386 -117.557275 251 11471ft 289kts
02-Dec-18 22:16 34.024496 -117.634103 251 10543ft 272kts
02-Dec-18 22:17 34.003463 -117.706504 265 9716ft 266kts
02-Dec-18 22:18 33.997140 -117.780252 267 8889ft 259kts
02-Dec-18 22:19 33.989263 -117.862021 267 7921ft 247kts
02-Dec-18 22:20 33.981454 -117.942270 267 6957ft 244kts
02-Dec-18 22:21 33.974743 -118.013229 267 6074ft 236kts
02-Dec-18 22:22 33.968350 -118.078635 267 5229ft 228kts
02-Dec-18 22:23 33.961739 -118.144370 267 4332ft 216kts
02-Dec-18 22:24 33.955654 -118.205281 266 3189ft 224kts
02-Dec-18 22:25 33.948556 -118.274286 265 1906ft 202kts
02-Dec-18 22:26 33.942597 -118.332373 264 946ft 157kts
02-Dec-18 22:27 33.937956 -118.377459 264 275ft 145kts
02-Dec-18 22:28 33.935373 -118.404223 279 121ft 29kts
02-Dec-18 22:29 33.935920 -118.407622 264 126ft 3kts
02-Dec-18 22:30 33.937726 -118.409111 353 126ft 11kts
02-Dec-18 22:31 33.938773 -118.408378 75 126ft 9kts
02-Dec-18 22:32 33.939661 -118.407749 68 125ft 5kts
02-Dec-18 22:33 33.939763 -118.407327 77 124ft 1kts
02-Dec-18 22:34 33.939781 -118.407232 77 124ft 0kts

Navigation Log

Ident Type
Flight plan parsing failed, navigation log unavailable